Terminal Aerodrome Forecast
Issued by NWS

Current Version | Previous Version | Graphics & Text | Print | Product List | Glossary On
Versions: 1 2 3 4 5 6 7 8 9 10 11 12 13 14 15 16 17 18 19 20
000
FTUS41 KPBZ 111746
TAFHLG
TAF
KHLG 111746Z 1118/1218 22005KT P6SM BKN080
     FM120000 17005KT P6SM OVC050
     FM120900 21010KT 3SM -SN OVC025
     FM121200 26011G27KT 5SM -SHSN OVC015
     FM121600 28014G31KT P6SM VCSH OVC025=

USA.gov is the U.S. government's official web portal to all federal, state and local government web resources and services.